createdAt,value
2022-10-13T00:02:15.761Z,101783.97
2022-10-13T00:04:42.337Z,101778.91
2022-10-13T00:07:08.744Z,101781.63
2022-10-13T00:09:35.203Z,101774.78
2022-10-13T00:12:01.601Z,101770.84
2022-10-13T00:14:28.008Z,101771.16
2022-10-13T00:16:54.420Z,101774.00
2022-10-13T00:19:20.879Z,101768.72
2022-10-13T00:21:47.263Z,101768.09
2022-10-13T00:24:13.714Z,101766.63
2022-10-13T00:26:40.096Z,101764.97
2022-10-13T00:29:06.501Z,101762.44
2022-10-13T00:31:32.982Z,101764.44
2022-10-13T00:34:00.892Z,101764.75
2022-10-13T00:36:28.649Z,101770.28
2022-10-13T00:38:56.607Z,101769.97
2022-10-13T00:41:23.108Z,101766.72
2022-10-13T00:43:59.933Z,101773.06
2022-10-13T00:46:37.068Z,101775.94
2022-10-13T00:49:16.820Z,101782.03
2022-10-13T00:51:47.289Z,101776.50
2022-10-13T00:54:17.739Z,101767.16
2022-10-13T00:56:46.100Z,101772.09
2022-10-13T00:59:22.815Z,101765.31
2022-10-13T01:01:51.077Z,101775.03
2022-10-13T01:04:19.788Z,101764.34
2022-10-13T01:06:46.395Z,101770.44
2022-10-13T01:09:13.011Z,101771.47
2022-10-13T01:12:08.173Z,101768.88
2022-10-13T01:14:43.312Z,101758.59
2022-10-13T01:17:22.539Z,101774.28
2022-10-13T01:20:15.707Z,101767.25
2022-10-13T01:22:57.016Z,101764.28
2022-10-13T01:26:00.617Z,101764.50
2022-10-13T01:28:42.301Z,101761.94
2022-10-13T01:31:20.967Z,101763.38
2022-10-13T01:34:18.562Z,101762.81
2022-10-13T01:36:57.814Z,101756.81
2022-10-13T01:39:31.193Z,101761.88
2022-10-13T01:42:11.293Z,101763.59
2022-10-13T01:44:41.795Z,101753.00
2022-10-13T01:47:10.744Z,101756.69
2022-10-13T01:49:38.576Z,101760.69
2022-10-13T01:52:10.160Z,101753.97
2022-10-13T01:54:36.706Z,101755.50
2022-10-13T01:57:03.288Z,101749.84
2022-10-13T01:59:35.166Z,101749.34
2022-10-13T02:02:18.709Z,101741.91
2022-10-13T02:05:01.030Z,101752.69
2022-10-13T02:07:54.199Z,101746.56
2022-10-13T02:10:58.516Z,101745.44
2022-10-13T02:13:28.211Z,101736.50
2022-10-13T02:15:58.926Z,101744.53
2022-10-13T02:18:33.098Z,101743.53
2022-10-13T02:21:00.566Z,101747.38
2022-10-13T02:23:28.284Z,101745.06
2022-10-13T02:25:57.187Z,101751.94
2022-10-13T02:28:24.157Z,101749.41
2022-10-13T02:30:51.191Z,101753.66
2022-10-13T02:33:18.112Z,101753.06
2022-10-13T02:35:44.655Z,101759.38
2022-10-13T02:38:11.352Z,101764.84
2022-10-13T02:40:37.981Z,101764.38
2022-10-13T02:43:04.782Z,101766.38
2022-10-13T02:45:31.539Z,101769.00
2022-10-13T02:47:58.200Z,101763.00
2022-10-13T02:50:24.736Z,101756.19
2022-10-13T02:52:51.201Z,101763.97
2022-10-13T02:55:17.807Z,101768.44
2022-10-13T02:57:44.279Z,101765.38
2022-10-13T03:00:11.447Z,101770.00
2022-10-13T03:02:37.897Z,101773.91
2022-10-13T03:05:04.671Z,101767.19
2022-10-13T03:07:31.111Z,101775.88
2022-10-13T03:09:57.547Z,101781.81
2022-10-13T03:12:23.946Z,101786.75
2022-10-13T03:14:50.408Z,101788.16
2022-10-13T03:17:17.530Z,101781.28
2022-10-13T03:19:44.019Z,101776.75
2022-10-13T03:22:14.436Z,101772.06
2022-10-13T03:24:41.721Z,101778.78
2022-10-13T03:27:08.430Z,101776.50
2022-10-13T03:29:34.864Z,101781.66
2022-10-13T03:32:01.432Z,101777.16
2022-10-13T03:34:27.927Z,101772.91
2022-10-13T03:36:54.382Z,101762.44
2022-10-13T03:39:22.104Z,101761.53
2022-10-13T03:41:48.635Z,101766.91
2022-10-13T03:44:15.399Z,101753.63
2022-10-13T03:46:41.924Z,101755.69
2022-10-13T03:49:10.258Z,101756.34
2022-10-13T03:51:36.548Z,101752.84
2022-10-13T03:54:03.084Z,101749.44
2022-10-13T03:56:29.739Z,101745.25
2022-10-13T03:58:58.724Z,101745.13
2022-10-13T04:01:28.191Z,101740.28
2022-10-13T04:03:55.812Z,101737.28
2022-10-13T04:06:24.002Z,101738.91
2022-10-13T04:08:51.549Z,101738.34
2022-10-13T04:11:18.561Z,101741.91
2022-10-13T04:13:46.101Z,101722.03
2022-10-13T04:16:18.139Z,101719.97
2022-10-13T04:18:45.633Z,101716.03
2022-10-13T04:21:15.109Z,101721.34
2022-10-13T04:23:41.986Z,101717.75
2022-10-13T04:26:18.886Z,101721.63
2022-10-13T04:28:46.972Z,101717.38
2022-10-13T04:31:14.188Z,101713.00
2022-10-13T04:33:40.865Z,101711.16
2022-10-13T04:36:08.744Z,101711.06
2022-10-13T04:38:35.164Z,101711.84
2022-10-13T04:41:06.228Z,101715.38
2022-10-13T04:43:33.295Z,101706.66
2022-10-13T04:46:05.382Z,101704.66
2022-10-13T04:48:31.882Z,101710.56
2022-10-13T04:51:03.655Z,101704.41
2022-10-13T04:53:31.211Z,101697.16
2022-10-13T04:56:02.163Z,101694.25
2022-10-13T04:58:29.039Z,101694.72
2022-10-13T05:00:55.859Z,101698.22
2022-10-13T05:03:23.389Z,101687.50
2022-10-13T05:05:50.310Z,101691.22
2022-10-13T05:08:16.809Z,101685.91
2022-10-13T05:10:43.299Z,101680.56
2022-10-13T05:13:09.698Z,101672.00
2022-10-13T05:15:39.196Z,101678.19
2022-10-13T05:18:05.645Z,101675.69
2022-10-13T05:20:32.135Z,101670.84
2022-10-13T05:22:58.555Z,101677.84
2022-10-13T05:25:24.953Z,101686.91
2022-10-13T05:27:51.370Z,101691.50
2022-10-13T05:30:17.819Z,101689.72
2022-10-13T05:32:44.212Z,101685.13
2022-10-13T05:35:10.651Z,101685.53
2022-10-13T05:37:37.208Z,101690.91
2022-10-13T05:40:03.951Z,101679.25
2022-10-13T05:42:30.449Z,101679.78
2022-10-13T05:44:57.186Z,101679.09
2022-10-13T05:47:28.010Z,101676.03
2022-10-13T05:49:55.372Z,101666.00
2022-10-13T05:52:24.297Z,101663.38
2022-10-13T05:54:55.603Z,101674.72
2022-10-13T05:57:37.087Z,101663.47
2022-10-13T06:00:03.550Z,101673.00
2022-10-13T06:02:38.276Z,101669.22
2022-10-13T06:05:08.534Z,101668.13
2022-10-13T06:07:34.967Z,101670.53
2022-10-13T06:10:01.987Z,101676.53
2022-10-13T06:12:28.372Z,101666.94
2022-10-13T06:14:55.568Z,101671.94
2022-10-13T06:17:22.063Z,101650.63
2022-10-13T06:19:48.495Z,101644.19
2022-10-13T06:22:15.148Z,101643.28
2022-10-13T06:24:41.579Z,101644.88
2022-10-13T06:27:07.995Z,101648.44
2022-10-13T06:29:34.392Z,101644.41
2022-10-13T06:32:00.847Z,101645.25
2022-10-13T06:34:27.336Z,101645.81
2022-10-13T06:36:53.752Z,101633.78
2022-10-13T06:39:21.007Z,101625.97
2022-10-13T06:41:48.193Z,101632.47
2022-10-13T06:44:14.623Z,101621.72
2022-10-13T06:46:41.032Z,101624.63
2022-10-13T06:49:10.206Z,101629.22
2022-10-13T06:51:36.995Z,101629.91
2022-10-13T06:54:03.777Z,101626.16
2022-10-13T06:56:30.255Z,101629.19
2022-10-13T06:58:56.659Z,101626.72
2022-10-13T07:01:23.132Z,101617.09
2022-10-13T07:03:50.899Z,101613.34
2022-10-13T07:06:17.872Z,101619.09
2022-10-13T07:08:44.596Z,101613.25
2022-10-13T07:11:16.303Z,101609.69
2022-10-13T07:13:46.555Z,101610.00
2022-10-13T07:16:14.789Z,101613.97
2022-10-13T07:18:41.580Z,101609.31
2022-10-13T07:21:08.055Z,101607.41
2022-10-13T07:23:34.525Z,101609.31
2022-10-13T07:26:01.729Z,101601.25
2022-10-13T07:28:28.680Z,101603.69
2022-10-13T07:30:55.545Z,101602.34
2022-10-13T07:33:22.329Z,101594.69
2022-10-13T07:35:48.805Z,101598.13
2022-10-13T07:38:15.355Z,101596.03
2022-10-13T07:40:41.886Z,101584.59
2022-10-13T07:43:08.328Z,101594.75
2022-10-13T07:45:34.788Z,101594.47
2022-10-13T07:48:01.235Z,101596.81
2022-10-13T07:50:27.636Z,101597.91
2022-10-13T07:52:54.151Z,101587.16
2022-10-13T07:55:20.529Z,101582.25
2022-10-13T07:57:46.955Z,101574.78
2022-10-13T08:00:13.845Z,101583.91
2022-10-13T08:02:40.404Z,101576.50
2022-10-13T08:05:07.087Z,101574.16
2022-10-13T08:07:33.599Z,101572.91
2022-10-13T08:10:00.023Z,101568.16
2022-10-13T08:12:26.423Z,101572.13
2022-10-13T08:14:52.872Z,101552.41
2022-10-13T08:17:19.545Z,101558.16
2022-10-13T08:19:46.152Z,101548.13
2022-10-13T08:22:12.566Z,101540.31
2022-10-13T08:24:38.995Z,101539.22
2022-10-13T08:27:05.414Z,101530.53
2022-10-13T08:29:31.994Z,101519.31
2022-10-13T08:31:58.510Z,101519.53
2022-10-13T08:34:25.413Z,101510.69
2022-10-13T08:36:54.241Z,101518.19
2022-10-13T08:39:22.237Z,101509.13
2022-10-13T08:41:49.571Z,101513.22
2022-10-13T08:47:37.386Z,101511.38
2022-10-13T08:50:25.386Z,101522.72
2022-10-13T08:53:01.554Z,101509.66
2022-10-13T08:55:43.607Z,101511.03
2022-10-13T08:58:24.578Z,101492.75
2022-10-13T09:01:04.881Z,101500.53
2022-10-13T09:03:31.400Z,101490.97
2022-10-13T09:06:09.694Z,101499.31
2022-10-13T09:08:56.725Z,101492.00
2022-10-13T09:11:25.958Z,101489.34
2022-10-13T09:14:00.774Z,101477.91
2022-10-13T09:16:35.651Z,101472.78
2022-10-13T09:19:40.630Z,101464.88
2022-10-13T09:22:43.357Z,101450.47
2022-10-13T09:25:20.530Z,101454.06
2022-10-13T09:27:59.199Z,101442.78
2022-10-13T09:30:41.394Z,101443.69
2022-10-13T09:33:13.688Z,101440.09
2022-10-13T09:35:47.438Z,101436.97
2022-10-13T09:38:18.424Z,101444.53
2022-10-13T09:41:00.124Z,101440.75
2022-10-13T09:43:35.291Z,101430.16
2022-10-13T09:46:11.573Z,101437.88
2022-10-13T09:48:42.392Z,101426.72
2022-10-13T09:51:34.363Z,101425.69
2022-10-13T09:54:01.070Z,101414.53
2022-10-13T09:56:43.721Z,101414.75
2022-10-13T09:59:33.882Z,101408.38
2022-10-13T10:02:22.397Z,101401.44
2022-10-13T10:04:53.259Z,101402.75
2022-10-13T10:07:25.527Z,101396.56
2022-10-13T10:09:56.767Z,101390.66
2022-10-13T10:12:28.396Z,101391.03
2022-10-13T10:14:55.721Z,101385.94
2022-10-13T10:17:47.678Z,101387.94
2022-10-13T10:20:40.337Z,101392.78
2022-10-13T10:23:16.959Z,101393.94
2022-10-13T10:25:57.351Z,101387.09
2022-10-13T10:28:35.992Z,101382.50
2022-10-13T10:31:26.056Z,101386.69
2022-10-13T10:34:27.230Z,101382.13
2022-10-13T10:37:13.927Z,101391.81
2022-10-13T10:39:59.919Z,101390.69
2022-10-13T10:42:57.995Z,101391.84
2022-10-13T10:45:33.618Z,101382.59
2022-10-13T10:48:04.836Z,101386.13
2022-10-13T10:50:33.643Z,101367.13
2022-10-13T10:53:06.311Z,101370.47
2022-10-13T10:55:32.656Z,101368.72
2022-10-13T10:58:17.924Z,101354.03
2022-10-13T11:01:20.322Z,101367.88
2022-10-13T11:03:57.195Z,101368.31
2022-10-13T11:06:34.015Z,101362.13
2022-10-13T11:09:01.316Z,101357.34
2022-10-13T11:11:33.567Z,101358.06
2022-10-13T11:14:06.000Z,101356.63
2022-10-13T11:16:34.759Z,101354.53
2022-10-13T11:19:08.800Z,101357.53
2022-10-13T11:21:53.527Z,101344.84
2022-10-13T11:24:41.203Z,101355.31
2022-10-13T11:27:07.587Z,101346.28
2022-10-13T11:29:51.530Z,101345.41
2022-10-13T11:32:36.145Z,101346.38
2022-10-13T11:35:05.627Z,101345.13
2022-10-13T11:37:36.099Z,101343.66
2022-10-13T11:40:25.239Z,101341.25
2022-10-13T11:43:08.437Z,101336.72
2022-10-13T11:46:05.120Z,101343.91
2022-10-13T11:48:31.472Z,101339.38
2022-10-13T11:51:23.614Z,101336.34
2022-10-13T11:54:08.270Z,101334.09
2022-10-13T11:56:47.482Z,101329.38
2022-10-13T11:59:22.029Z,101337.28
2022-10-13T12:01:53.963Z,101333.25
2022-10-13T12:04:23.297Z,101322.66
2022-10-13T12:06:57.174Z,101312.31
2022-10-13T12:09:24.291Z,101314.44
2022-10-13T12:12:10.036Z,101309.75
2022-10-13T12:14:43.295Z,101298.13
2022-10-13T12:17:32.570Z,101307.22
2022-10-13T12:20:01.900Z,101304.47
2022-10-13T12:22:28.648Z,101288.75
2022-10-13T12:25:04.979Z,101285.44
2022-10-13T12:27:42.246Z,101275.41
2022-10-13T12:30:41.285Z,101280.00
2022-10-13T12:33:30.967Z,101274.81
2022-10-13T12:36:17.583Z,101279.66
2022-10-13T12:38:49.603Z,101278.28
2022-10-13T12:41:25.796Z,101273.53
2022-10-13T12:43:53.190Z,101274.38
2022-10-13T12:46:43.806Z,101275.75
2022-10-13T12:51:56.363Z,101271.38
2022-10-13T12:54:27.328Z,101265.94
2022-10-13T12:56:57.836Z,101271.63
2022-10-13T12:59:26.669Z,101279.41
2022-10-13T13:02:02.586Z,101281.00
2022-10-13T13:04:38.005Z,101286.00
2022-10-13T13:07:06.506Z,101284.53
2022-10-13T13:09:34.840Z,101295.66
2022-10-13T13:12:06.255Z,101286.00
2022-10-13T13:14:42.234Z,101283.44
2022-10-13T13:17:08.678Z,101286.00
2022-10-13T13:19:37.239Z,101287.81
2022-10-13T13:22:05.825Z,101294.56
2022-10-13T13:24:39.908Z,101296.03
2022-10-13T13:27:31.205Z,101280.25
2022-10-13T13:29:58.035Z,101268.91
2022-10-13T13:32:27.328Z,101293.69
2022-10-13T13:34:54.270Z,101301.28
2022-10-13T13:37:26.413Z,101291.47
2022-10-13T13:39:53.162Z,101296.28
2022-10-13T13:42:19.767Z,101289.34
2022-10-13T13:44:46.215Z,101295.16
2022-10-13T13:47:20.139Z,101290.63
2022-10-13T13:49:47.974Z,101284.59
2022-10-13T13:52:14.483Z,101293.28
2022-10-13T13:54:40.951Z,101290.06
2022-10-13T13:57:07.389Z,101287.81
2022-10-13T13:59:33.886Z,101293.28
2022-10-13T14:02:00.947Z,101284.59
2022-10-13T14:04:27.431Z,101291.38
2022-10-13T14:06:53.867Z,101298.53
2022-10-13T14:09:20.262Z,101297.97
2022-10-13T14:11:46.699Z,101280.03
2022-10-13T14:14:13.608Z,101281.09
2022-10-13T14:16:41.436Z,101274.75
2022-10-13T14:19:10.122Z,101279.56
2022-10-13T14:21:37.096Z,101276.97
2022-10-13T14:24:04.654Z,101276.59
2022-10-13T14:26:31.274Z,101275.03
2022-10-13T14:28:58.330Z,101278.00
2022-10-13T14:31:24.993Z,101282.31
2022-10-13T14:33:54.232Z,101281.13
2022-10-13T14:36:20.970Z,101287.03
2022-10-13T14:38:47.491Z,101281.75
2022-10-13T14:41:15.755Z,101283.59
2022-10-13T14:43:42.256Z,101280.50
2022-10-13T14:46:08.670Z,101291.56
2022-10-13T14:48:36.614Z,101298.63
2022-10-13T14:51:07.079Z,101295.97
2022-10-13T14:53:39.116Z,101297.09
2022-10-13T14:56:27.140Z,101290.81
2022-10-13T14:58:56.489Z,101291.50
2022-10-13T15:01:23.030Z,101293.97
2022-10-13T15:03:49.932Z,101297.84
2022-10-13T15:06:19.278Z,101294.09
2022-10-13T15:08:46.602Z,101297.09
2022-10-13T15:11:13.329Z,101292.38
2022-10-13T15:13:40.476Z,101294.84
2022-10-13T15:16:08.042Z,101279.63
2022-10-13T15:18:36.171Z,101291.78
2022-10-13T15:21:02.638Z,101286.97
2022-10-13T15:23:29.144Z,101286.44
2022-10-13T15:25:58.576Z,101293.84
2022-10-13T15:28:28.135Z,101295.59
2022-10-13T15:30:55.236Z,101295.38
2022-10-13T15:33:22.190Z,101297.47
2022-10-13T15:35:50.158Z,101304.50
2022-10-13T15:38:18.010Z,101299.34
2022-10-13T15:40:44.579Z,101319.50
2022-10-13T15:43:11.179Z,101333.63
2022-10-13T15:45:37.844Z,101329.31
2022-10-13T15:48:08.587Z,101329.09
2022-10-13T15:50:39.519Z,101328.94
2022-10-13T15:53:06.483Z,101333.16
2022-10-13T15:55:33.397Z,101373.41
2022-10-13T15:57:59.860Z,101384.53
2022-10-13T16:00:26.479Z,101390.72
2022-10-13T16:02:52.981Z,101408.59
2022-10-13T16:05:20.020Z,101408.00
2022-10-13T16:07:46.534Z,101399.06
2022-10-13T16:10:14.889Z,101412.53
2022-10-13T16:12:48.334Z,101410.13
2022-10-13T16:15:17.949Z,101395.28
2022-10-13T16:17:47.081Z,101372.59
2022-10-13T16:20:13.524Z,101411.97
2022-10-13T16:22:39.987Z,101432.31
2022-10-13T16:25:07.014Z,101440.97
2022-10-13T16:27:33.440Z,101449.00
2022-10-13T16:29:59.822Z,101447.81
2022-10-13T16:32:26.261Z,101450.06
2022-10-13T16:34:52.737Z,101481.03
2022-10-13T16:37:19.930Z,101515.44
2022-10-13T16:39:51.497Z,101521.06
2022-10-13T16:42:18.439Z,101540.50
2022-10-13T16:44:44.832Z,101552.75
2022-10-13T16:47:15.945Z,101581.13
2022-10-13T16:49:44.579Z,101601.16
2022-10-13T16:52:11.068Z,101627.28
2022-10-13T16:54:37.531Z,101652.78
2022-10-13T16:57:03.991Z,101676.75
2022-10-13T16:59:30.530Z,101702.81
2022-10-13T17:01:57.894Z,101741.94
2022-10-13T17:04:24.624Z,101763.22
2022-10-13T17:06:51.020Z,101791.38
2022-10-13T17:09:17.464Z,101810.22
2022-10-13T17:11:43.931Z,101854.06
2022-10-13T17:14:10.809Z,101943.41
2022-10-13T17:16:37.264Z,101994.13
2022-10-13T17:19:03.730Z,102038.38
2022-10-13T17:21:31.904Z,102087.06
2022-10-13T17:23:58.418Z,102111.66
2022-10-13T17:26:25.083Z,102151.78
2022-10-13T17:28:51.558Z,102169.53
2022-10-13T17:31:21.591Z,102209.31
2022-10-13T17:33:49.147Z,102244.59
2022-10-13T17:36:19.949Z,102263.00
2022-10-13T17:38:47.718Z,102275.50
2022-10-13T17:41:14.420Z,102257.84
2022-10-13T17:43:41.442Z,102279.69
2022-10-13T17:49:09.835Z,102345.59
2022-10-13T17:51:36.350Z,102380.59
2022-10-13T17:54:03.389Z,102413.53
2022-10-13T17:56:30.762Z,102428.19
2022-10-13T17:58:58.018Z,102454.88
2022-10-13T18:01:27.619Z,102473.69
2022-10-13T18:04:00.019Z,102514.13
2022-10-13T18:06:38.646Z,102575.66
2022-10-13T18:09:17.179Z,102593.59
2022-10-13T18:11:49.723Z,102634.44
2022-10-13T18:14:21.418Z,102642.19
2022-10-13T18:16:48.764Z,102601.69
2022-10-13T18:19:15.335Z,102600.44
2022-10-13T18:21:41.848Z,102621.63
2022-10-13T18:24:09.426Z,102614.56
2022-10-13T18:26:35.949Z,102603.06
2022-10-13T18:29:07.129Z,102592.03
2022-10-13T18:31:35.995Z,102579.47
2022-10-13T18:34:04.884Z,102559.72
2022-10-13T18:36:39.998Z,102556.03
2022-10-13T18:39:20.400Z,102557.84
2022-10-13T18:41:47.740Z,102548.81
2022-10-13T18:44:15.482Z,102541.50
2022-10-13T18:46:42.544Z,102537.06
2022-10-13T18:49:13.412Z,102530.25
2022-10-13T18:51:40.902Z,102526.84
2022-10-13T18:54:07.920Z,102499.81
2022-10-13T18:56:38.463Z,102505.72
2022-10-13T18:59:06.722Z,102499.91
2022-10-13T19:01:34.785Z,102512.66
2022-10-13T19:04:01.400Z,102510.78
2022-10-13T19:06:30.338Z,102524.69
2022-10-13T19:09:00.741Z,102534.94
2022-10-13T19:11:29.107Z,102554.31
2022-10-13T19:13:57.200Z,102563.78
2022-10-13T19:16:25.054Z,102558.47
2022-10-13T19:18:52.249Z,102586.03
2022-10-13T19:21:20.391Z,102622.69
2022-10-13T19:23:47.194Z,102629.03
2022-10-13T19:26:19.620Z,102623.00
2022-10-13T19:28:46.300Z,102630.13
2022-10-13T19:31:17.416Z,102627.44
2022-10-13T19:33:45.326Z,102629.59
2022-10-13T19:36:23.659Z,102618.53
2022-10-13T19:38:50.714Z,102638.03
2022-10-13T19:41:17.946Z,102653.75
2022-10-13T19:43:44.502Z,102648.44
2022-10-13T19:46:11.254Z,102654.28
2022-10-13T19:48:37.652Z,102654.41
2022-10-13T19:51:06.730Z,102657.88
2022-10-13T19:53:34.149Z,102651.03
2022-10-13T19:56:00.551Z,102656.69
2022-10-13T19:58:27.051Z,102665.34
2022-10-13T20:00:53.556Z,102684.63
2022-10-13T20:03:20.157Z,102697.09
2022-10-13T20:05:46.569Z,102694.72
2022-10-13T20:08:13.329Z,102686.16
2022-10-13T20:10:42.078Z,102695.25
2022-10-13T20:13:09.974Z,102685.16
2022-10-13T20:15:41.483Z,102689.38
2022-10-13T20:18:09.425Z,102692.63
2022-10-13T20:20:36.570Z,102686.22
2022-10-13T20:23:03.281Z,102691.59
2022-10-13T20:25:29.779Z,102705.03
2022-10-13T20:27:56.181Z,102693.94
2022-10-13T20:30:22.609Z,102687.75
2022-10-13T20:32:49.053Z,102690.66
2022-10-13T20:35:15.654Z,102680.47
2022-10-13T20:37:42.225Z,102688.59
2022-10-13T20:40:09.167Z,102666.13
2022-10-13T20:42:35.667Z,102684.63
2022-10-13T20:45:02.140Z,102696.66
2022-10-13T20:47:28.621Z,102674.53
2022-10-13T20:49:55.637Z,102676.53
2022-10-13T20:52:22.197Z,102676.31
2022-10-13T20:54:48.821Z,102679.19
2022-10-13T20:57:15.275Z,102673.25
2022-10-13T20:59:42.039Z,102671.22
2022-10-13T21:02:13.223Z,102683.59
2022-10-13T21:04:39.788Z,102684.13
2022-10-13T21:07:06.255Z,102688.34
2022-10-13T21:09:34.871Z,102682.94
2022-10-13T21:12:01.455Z,102674.91
2022-10-13T21:14:27.935Z,102679.53
2022-10-13T21:16:54.315Z,102669.88
2022-10-13T21:19:20.996Z,102663.91
2022-10-13T21:21:47.472Z,102657.72
2022-10-13T21:24:13.870Z,102661.22
2022-10-13T21:26:40.822Z,102649.94
2022-10-13T21:29:07.238Z,102648.94
2022-10-13T21:31:34.129Z,102660.91
2022-10-13T21:34:00.795Z,102668.78
2022-10-13T21:36:32.284Z,102667.69
2022-10-13T21:39:01.413Z,102665.31
2022-10-13T21:41:28.636Z,102674.34
2022-10-13T21:43:55.182Z,102673.97
2022-10-13T21:46:27.606Z,102667.94
2022-10-13T21:48:59.114Z,102668.03
2022-10-13T21:51:29.552Z,102663.81
2022-10-13T21:53:58.535Z,102679.38
2022-10-13T21:56:26.765Z,102681.16
2022-10-13T21:58:54.496Z,102658.25
2022-10-13T22:01:21.634Z,102696.91
2022-10-13T22:03:56.212Z,102692.25
2022-10-13T22:06:23.347Z,102714.13
2022-10-13T22:08:54.227Z,102700.50
2022-10-13T22:11:23.054Z,102703.72
2022-10-13T22:13:49.487Z,102691.47
2022-10-13T22:16:21.685Z,102679.22
2022-10-13T22:18:48.647Z,102688.22
2022-10-13T22:21:20.662Z,102681.97
2022-10-13T22:23:47.278Z,102683.97
2022-10-13T22:26:15.899Z,102681.22
2022-10-13T22:28:42.714Z,102665.69
2022-10-13T22:31:12.561Z,102652.13
2022-10-13T22:33:41.071Z,102664.50
2022-10-13T22:36:15.093Z,102671.38
2022-10-13T22:38:42.332Z,102685.34
2022-10-13T22:41:09.335Z,102707.06
2022-10-13T22:43:36.348Z,102737.22
2022-10-13T22:46:03.476Z,102752.09
2022-10-13T22:48:29.929Z,102745.97
2022-10-13T22:50:56.539Z,102760.53
2022-10-13T22:53:22.941Z,102763.66
2022-10-13T22:55:49.535Z,102738.28
2022-10-13T22:58:15.945Z,102757.00
2022-10-13T23:00:42.355Z,102764.75
2022-10-13T23:03:13.130Z,102760.44
2022-10-13T23:05:45.919Z,102758.00
2022-10-13T23:08:12.467Z,102753.63
2022-10-13T23:10:39.006Z,102742.69
2022-10-13T23:13:05.573Z,102758.28
2022-10-13T23:15:32.707Z,102768.44
2022-10-13T23:17:59.142Z,102757.22
2022-10-13T23:20:25.668Z,102744.16
2022-10-13T23:22:52.043Z,102739.19
2022-10-13T23:25:18.431Z,102773.16
2022-10-13T23:27:44.820Z,102751.19
2022-10-13T23:30:11.960Z,102742.06
2022-10-13T23:32:38.382Z,102723.66
2022-10-13T23:35:05.111Z,102722.47
2022-10-13T23:37:31.519Z,102715.72
2022-10-13T23:39:57.952Z,102707.69
2022-10-13T23:42:24.363Z,102711.84
2022-10-13T23:44:50.786Z,102710.03
2022-10-13T23:47:17.190Z,102709.69
2022-10-13T23:49:43.630Z,102698.75
2022-10-13T23:52:11.171Z,102700.16
2022-10-13T23:54:37.667Z,102689.97
2022-10-13T23:57:04.163Z,102700.06
2022-10-13T23:59:30.548Z,102671.00
